Time;durP1;ratioP1;P1;durP2;ratioP2;P2;SDS_P1;SDS_P2;PMS_P1;PMS_P2;Temp;Humidity;BMP_temperature;BMP_pressure;BME280_temperature;BME280_humidity;BME280_pressure;Samples;Min_cycle;Max_cycle;Signal;HPM_P1;HPM_P2
2022/12/13 06:03:45;;;;;;;44.38;21.23;;;-6.60;99.90;;;;;;4869571;29;20101;-75
2022/12/13 06:06:11;;;;;;;42.30;21.70;;;-6.60;99.90;;;;;;4869291;29;20060;-75
2022/12/13 06:08:38;;;;;;;41.30;21.42;;;-6.60;99.90;;;;;;4870785;29;20062;-76
2022/12/13 06:11:05;;;;;;;42.88;21.20;;;-6.60;99.90;;;;;;4854104;29;20033;-75
2022/12/13 06:13:31;;;;;;;42.50;21.65;;;-6.60;99.90;;;;;;4807243;29;20113;-76
2022/12/13 06:16:04;;;;;;;36.17;18.92;;;-6.60;99.90;;;;;;4852063;29;20038;-77
2022/12/13 06:18:32;;;;;;;40.95;21.02;;;-6.60;99.90;;;;;;4851271;29;20245;-77
2022/12/13 06:20:59;;;;;;;41.17;20.83;;;-6.60;99.90;;;;;;4835513;29;20224;-75
2022/12/13 06:23:26;;;;;;;31.40;15.40;;;-6.70;99.90;;;;;;4835207;29;20026;-74
2022/12/13 06:25:52;;;;;;;41.42;21.27;;;-6.70;99.90;;;;;;4846614;29;20067;-73
2022/12/13 06:28:18;;;;;;;46.17;21.27;;;-6.80;99.90;;;;;;4852607;29;20045;-73
2022/12/13 06:30:43;;;;;;;37.50;18.40;;;-6.70;99.90;;;;;;4835657;29;20252;-73
2022/12/13 06:33:10;;;;;;;39.58;19.13;;;-6.70;99.90;;;;;;4852095;29;20219;-73
2022/12/13 06:35:36;;;;;;;39.22;19.70;;;-6.70;99.90;;;;;;4851057;29;20041;-75
2022/12/13 06:38:02;;;;;;;42.35;21.90;;;-6.70;99.90;;;;;;4851625;29;20060;-76
2022/12/13 06:40:32;;;;;;;36.83;19.38;;;-6.70;99.90;;;;;;4850896;29;20299;-75
2022/12/13 06:42:58;;;;;;;38.17;18.88;;;-6.70;99.90;;;;;;4851908;29;20042;-75
2022/12/13 06:45:25;;;;;;;37.05;18.58;;;-6.70;99.90;;;;;;4850947;29;20089;-75
2022/12/13 06:47:50;;;;;;;41.83;19.52;;;-6.70;99.90;;;;;;4846146;29;20033;-75
2022/12/13 06:50:16;;;;;;;37.45;18.92;;;-6.80;99.90;;;;;;4851824;29;20034;-75
2022/12/13 06:52:44;;;;;;;39.45;17.80;;;-6.80;99.90;;;;;;4851245;29;20049;-75
2022/12/13 06:55:10;;;;;;;;;;;-6.80;99.90;;;;;;4852141;29;20038;-75
2022/12/13 06:57:35;;;;;;;37.47;19.23;;;-6.80;99.90;;;;;;4850803;29;19916;-74
2022/12/13 07:00:03;;;;;;;38.38;19.13;;;-6.80;99.90;;;;;;4851274;29;20030;-73
2022/12/13 07:02:29;;;;;;;39.65;20.33;;;-6.80;99.90;;;;;;4850484;29;20219;-73
2022/12/13 07:04:56;;;;;;;42.50;20.33;;;-6.80;99.90;;;;;;4852072;29;20157;-73
2022/12/13 07:07:23;;;;;;;44.97;20.60;;;-6.80;99.90;;;;;;4833245;29;20319;-73
2022/12/13 07:09:50;;;;;;;37.53;17.55;;;-6.80;99.90;;;;;;4834736;29;20367;-72
2022/12/13 07:12:18;;;;;;;38.97;18.52;;;-6.80;99.90;;;;;;4850862;29;20304;-74
2022/12/13 07:14:43;;;;;;;40.50;18.37;;;-6.70;99.90;;;;;;4850392;29;20061;-75
2022/12/13 07:17:09;;;;;;;37.92;18.80;;;-6.70;99.90;;;;;;4850853;29;20450;-74
2022/12/13 07:19:36;;;;;;;38.70;18.27;;;-6.70;99.90;;;;;;4846780;29;20105;-73
2022/12/13 07:22:04;;;;;;;37.72;18.38;;;-6.70;99.90;;;;;;4841702;29;20244;-73
2022/12/13 07:24:30;;;;;;;34.08;17.52;;;-6.60;99.90;;;;;;4849064;29;20030;-72
2022/12/13 07:26:56;;;;;;;39.30;19.95;;;-6.60;99.90;;;;;;4849756;29;20041;-73
2022/12/13 07:29:21;;;;;;;54.03;26.38;;;-6.50;99.90;;;;;;4845682;29;20038;-73
2022/12/13 07:31:47;;;;;;;51.78;26.33;;;-6.50;99.90;;;;;;4849613;29;20038;-73
2022/12/13 07:34:13;;;;;;;48.15;23.70;;;-6.40;99.90;;;;;;4849802;29;20329;-74
2022/12/13 07:36:39;;;;;;;45.50;21.17;;;-6.40;99.90;;;;;;4833001;29;20193;-74
2022/12/13 07:39:04;;;;;;;42.67;19.42;;;-6.30;99.90;;;;;;4833408;29;20304;-74
2022/12/13 07:41:34;;;;;;;40.08;19.35;;;-6.20;99.90;;;;;;4849392;29;20036;-74
2022/12/13 07:43:59;;;;;;;38.40;18.55;;;-6.20;99.90;;;;;;4849605;29;20038;-75
2022/12/13 07:46:25;;;;;;;40.13;19.58;;;-6.10;99.90;;;;;;4849197;29;20380;-74
2022/12/13 07:48:51;;;;;;;37.42;19.05;;;-6.10;99.90;;;;;;4844499;29;20049;-74
2022/12/13 07:51:16;;;;;;;34.33;16.75;;;-6.00;99.90;;;;;;4849521;29;20065;-73
2022/12/13 07:53:43;;;;;;;37.10;17.85;;;-6.00;99.90;;;;;;4848958;29;20125;-74
2022/12/13 07:56:10;;;;;;;37.92;17.85;;;-5.90;99.90;;;;;;4833432;29;20252;-74
2022/12/13 07:58:37;;;;;;;29.23;13.80;;;-5.80;99.90;;;;;;4849389;29;20093;-74
2022/12/13 08:01:07;;;;;;;36.83;17.75;;;-5.70;99.90;;;;;;4849545;29;20040;-73
2022/12/13 08:03:35;;;;;;;34.83;16.75;;;-5.60;99.90;;;;;;4849076;29;20061;-72
2022/12/13 08:06:11;;;;;;;30.77;14.83;;;-5.60;99.90;;;;;;4867714;29;20034;-72
2022/12/13 08:08:40;;;;;;;34.40;17.73;;;-5.40;99.90;;;;;;4849833;29;20443;-75
2022/12/13 08:11:15;;;;;;;39.55;17.73;;;-5.40;99.90;;;;;;4846288;29;20037;-73
2022/12/13 08:13:41;;;;;;;33.80;16.88;;;-5.30;99.90;;;;;;4851455;29;20096;-72
2022/12/13 08:16:09;;;;;;;34.05;17.20;;;-5.20;99.90;;;;;;4867815;29;20040;-73
2022/12/13 08:18:35;;;;;;;34.80;17.77;;;-5.10;99.90;;;;;;4867161;29;20029;-73
2022/12/13 08:21:06;;;;;;;35.40;16.48;;;-5.00;99.90;;;;;;4867527;29;20040;-74
2022/12/13 08:23:33;;;;;;;34.13;16.88;;;-4.90;99.90;;;;;;4867278;29;20041;-73
2022/12/13 08:26:00;;;;;;;32.67;16.83;;;-4.80;99.90;;;;;;4868563;29;20089;-73
2022/12/13 08:28:26;;;;;;;37.85;18.13;;;-4.70;99.90;;;;;;4870523;29;20041;-71
2022/12/13 08:30:52;;;;;;;35.08;17.48;;;-4.70;99.90;;;;;;4865615;29;20049;-74
2022/12/13 08:33:24;;;;;;;31.42;16.17;;;-4.60;99.90;;;;;;4855660;29;20026;-74
2022/12/13 08:35:50;;;;;;;35.08;16.35;;;-4.40;99.90;;;;;;4856049;29;20219;-74
2022/12/13 08:38:15;;;;;;;31.40;15.93;;;-4.30;99.90;;;;;;4871437;29;20021;-74
2022/12/13 08:40:41;;;;;;;32.25;16.58;;;-4.30;99.90;;;;;;4870612;29;20330;-72
2022/12/13 08:43:07;;;;;;;34.17;16.60;;;-4.20;99.90;;;;;;4870867;29;20208;-72
2022/12/13 08:45:33;;;;;;;32.53;14.98;;;-4.20;99.90;;;;;;4853494;29;20033;-73
2022/12/13 08:48:02;;;;;;;31.10;15.57;;;-4.20;99.90;;;;;;4850990;29;20030;-73
2022/12/13 08:50:31;;;;;;;29.48;14.45;;;-4.10;99.90;;;;;;4851815;29;20060;-73
2022/12/13 08:52:56;;;;;;;31.00;14.38;;;-4.00;99.90;;;;;;4852340;29;20040;-72
2022/12/13 08:55:22;;;;;;;29.55;14.32;;;-4.00;99.90;;;;;;4852021;29;20315;-72
2022/12/13 08:57:48;;;;;;;27.00;13.55;;;-3.90;99.90;;;;;;4835135;29;20037;-73
2022/12/13 09:00:17;;;;;;;26.75;13.63;;;-3.80;99.90;;;;;;4851850;29;20037;-73
2022/12/13 09:02:43;;;;;;;31.40;15.20;;;-3.80;99.90;;;;;;4841153;29;20054;-73
2022/12/13 09:05:11;;;;;;;28.50;15.45;;;-3.80;99.90;;;;;;4833544;29;20051;-73
2022/12/13 09:07:40;;;;;;;28.00;13.65;;;-3.70;99.90;;;;;;4849518;29;20239;-72
2022/12/13 09:10:08;;;;;;;25.05;13.75;;;-3.60;99.90;;;;;;4835564;29;20274;-73
2022/12/13 09:12:40;;;;;;;27.50;13.43;;;-3.50;99.90;;;;;;4835601;29;20109;-76
2022/12/13 09:15:06;;;;;;;25.42;12.95;;;-3.40;99.90;;;;;;4852038;29;20033;-73
2022/12/13 09:17:32;;;;;;;23.73;12.48;;;-3.30;99.90;;;;;;4851254;29;20056;-75
2022/12/13 09:20:01;;;;;;;26.55;12.85;;;-3.20;99.90;;;;;;4851982;29;20069;-75
2022/12/13 09:22:27;;;;;;;29.30;13.00;;;-3.10;99.90;;;;;;4851235;29;20041;-74
2022/12/13 09:24:55;;;;;;;24.38;12.45;;;-2.90;99.90;;;;;;4851696;29;20102;-73
2022/12/13 09:27:21;;;;;;;23.13;12.05;;;-2.90;99.90;;;;;;4852207;29;20033;-74
2022/12/13 09:29:47;;;;;;;28.90;13.73;;;-2.90;99.90;;;;;;4851432;29;20026;-74
2022/12/13 09:32:13;;;;;;;29.02;12.32;;;-2.80;99.90;;;;;;4851944;29;20061;-74
2022/12/13 09:34:38;;;;;;;26.30;12.80;;;-2.80;99.90;;;;;;4851082;29;20224;-74
2022/12/13 09:37:05;;;;;;;26.15;12.30;;;-2.60;99.90;;;;;;4835204;29;20034;-75
2022/12/13 09:39:31;;;;;;;23.77;12.07;;;-2.50;99.90;;;;;;4851353;29;20168;-75
2022/12/13 09:41:57;;;;;;;29.17;13.40;;;-2.40;99.90;;;;;;4851475;29;20298;-74
2022/12/13 09:44:28;;;;;;;26.83;13.07;;;-2.30;99.90;;;;;;4851248;29;20038;-75
2022/12/13 09:46:55;;;;;;;24.42;12.88;;;-2.20;99.90;;;;;;4835106;29;20086;-75
2022/12/13 09:49:30;;;;;;;25.38;12.95;;;-2.20;99.90;;;;;;4851575;29;20037;-74
2022/12/13 09:51:59;;;;;;;23.95;12.85;;;-2.10;99.90;;;;;;4851205;29;20048;-74
2022/12/13 09:54:25;;;;;;;;;;;-2.10;99.90;;;;;;4835426;29;20054;-75
2022/12/13 09:56:55;;;;;;;26.02;10.98;;;-2.10;99.90;;;;;;4851293;29;19908;-74
2022/12/13 09:59:30;;;;;;;27.55;11.77;;;-2.00;99.90;;;;;;4851444;29;20125;-74
2022/12/13 10:02:02;;;;;;;24.48;11.50;;;-1.90;99.90;;;;;;4851019;29;20050;-72
2022/12/13 10:04:28;;;;;;;25.48;11.98;;;-1.70;99.90;;;;;;4835545;29;20061;-73
2022/12/13 10:06:56;;;;;;;23.15;11.65;;;-1.60;99.90;;;;;;4850904;29;20037;-74
2022/12/13 10:09:26;;;;;;;21.70;11.18;;;-1.60;99.90;;;;;;4835037;29;20038;-75
2022/12/13 10:11:52;;;;;;;25.80;11.57;;;-1.50;99.90;;;;;;4851276;29;20037;-74
2022/12/13 10:14:27;;;;;;;22.70;12.52;;;-1.40;99.90;;;;;;4850922;29;20276;-72
2022/12/13 10:16:59;;;;;;;24.45;10.80;;;-1.30;99.90;;;;;;4851365;29;20065;-74
2022/12/13 10:19:45;;;;;;;21.65;10.70;;;-1.20;99.90;;;;;;4861466;29;20085;-73
2022/12/13 10:22:15;;;;;;;22.55;11.10;;;-1.10;99.90;;;;;;4869469;29;20034;-74
2022/12/13 10:25:02;;;;;;;23.27;11.18;;;-1.00;99.90;;;;;;4864600;29;20045;-72
2022/12/13 10:27:38;;;;;;;22.13;10.82;;;-0.90;99.90;;;;;;4850551;29;20083;-73
2022/12/13 10:30:17;;;;;;;26.30;11.82;;;-0.90;99.90;;;;;;4834607;29;20253;-72
2022/12/13 10:32:58;;;;;;;20.48;10.63;;;-0.80;99.90;;;;;;4853746;29;20030;-72
2022/12/13 10:35:27;;;;;;;20.52;10.27;;;-0.60;99.90;;;;;;4837537;29;20045;-73
2022/12/13 10:37:55;;;;;;;21.50;9.95;;;-0.40;99.90;;;;;;4852380;29;20283;-73
2022/12/13 10:40:45;;;;;;;23.17;10.43;;;-0.30;99.90;;;;;;4852734;29;20030;-72
2022/12/13 10:43:16;;;;;;;19.77;9.77;;;-0.20;99.90;;;;;;4850533;29;20090;-73
2022/12/13 10:45:55;;;;;;;23.70;10.93;;;-0.10;99.30;;;;;;4849831;29;20048;-71
2022/12/13 10:48:38;;;;;;;19.63;9.68;;;0.00;98.90;;;;;;4850005;29;20057;-71
2022/12/13 10:51:08;;;;;;;21.48;9.80;;;0.10;98.90;;;;;;4819136;29;20100;-72
2022/12/13 10:53:40;;;;;;;20.48;10.50;;;0.10;98.80;;;;;;4849960;29;20429;-72
2022/12/13 10:56:06;;;;;;;19.20;9.32;;;0.30;99.00;;;;;;4849687;29;20030;-72
2022/12/13 10:58:41;;;;;;;20.10;10.15;;;0.30;98.10;;;;;;4850177;29;20085;-73
2022/12/13 11:01:22;;;;;;;24.15;10.75;;;0.50;98.20;;;;;;4842489;29;20082;-73
2022/12/13 11:03:56;;;;;;;21.35;9.15;;;0.70;97.10;;;;;;4861850;29;20053;-74
2022/12/13 11:06:21;;;;;;;19.27;9.60;;;0.90;96.60;;;;;;4868674;29;20323;-73
2022/12/13 11:08:47;;;;;;;19.25;10.05;;;1.10;96.20;;;;;;4868214;29;20025;-73
2022/12/13 11:11:16;;;;;;;22.08;9.95;;;1.20;96.10;;;;;;4851907;29;20339;-72
2022/12/13 11:13:51;;;;;;;18.38;9.73;;;1.40;95.50;;;;;;4851690;29;20200;-72
2022/12/13 11:16:26;;;;;;;18.13;9.35;;;1.60;95.80;;;;;;4868576;29;20033;-73
2022/12/13 11:18:58;;;;;;;25.40;9.77;;;1.80;95.40;;;;;;4868592;29;20033;-72
2022/12/13 11:21:27;;;;;;;15.32;8.90;;;2.00;94.60;;;;;;4867975;29;20037;-73
2022/12/13 11:23:59;;;;;;;17.90;10.40;;;2.00;94.80;;;;;;4868152;29;20025;-75
2022/12/13 11:26:27;;;;;;;16.75;9.10;;;2.00;94.60;;;;;;4867862;29;20096;-73
2022/12/13 11:29:04;;;;;;;24.20;11.40;;;2.10;94.60;;;;;;4868184;29;20026;-73
2022/12/13 11:32:06;;;;;;;22.63;10.67;;;2.30;94.00;;;;;;4867611;29;20830;-73
2022/12/13 11:34:56;;;;;;;25.65;10.52;;;2.70;93.50;;;;;;4868253;29;20044;-73
2022/12/13 11:37:54;;;;;;;18.73;9.60;;;2.80;93.30;;;;;;4868247;29;20033;-75
2022/12/13 11:40:31;;;;;;;20.08;10.10;;;2.70;93.60;;;;;;4842757;29;20287;-75
2022/12/13 11:43:27;;;;;;;17.38;9.50;;;2.90;93.70;;;;;;4868239;29;20044;-72
2022/12/13 11:45:56;;;;;;;25.67;10.68;;;3.20;92.50;;;;;;4868121;29;20134;-74
2022/12/13 11:48:59;;;;;;;21.50;11.40;;;3.50;92.30;;;;;;4868248;29;20383;-73
2022/12/13 11:51:56;;;;;;;19.63;10.52;;;3.60;92.30;;;;;;4838777;29;20046;-74
2022/12/13 11:54:36;;;;;;;19.75;9.43;;;3.60;91.50;;;;;;4867925;29;20219;-73
2022/12/13 11:57:11;;;;;;;19.30;9.30;;;3.50;91.40;;;;;;4867747;29;20044;-73
2022/12/13 11:59:44;;;;;;;18.48;9.60;;;3.50;91.40;;;;;;4867699;29;20068;-72
2022/12/13 12:02:13;;;;;;;19.92;9.65;;;3.40;91.50;;;;;;4856867;29;20058;-73
2022/12/13 12:04:47;;;;;;;18.90;9.63;;;3.30;91.20;;;;;;4872482;29;20167;-73
2022/12/13 12:07:28;;;;;;;19.10;10.07;;;3.00;91.80;;;;;;4872219;29;20053;-73
2022/12/13 12:10:03;;;;;;;20.63;9.63;;;2.80;91.90;;;;;;4870447;29;20060;-73
2022/12/13 12:12:33;;;;;;;18.58;9.07;;;2.60;92.20;;;;;;4854969;29;20196;-72
2022/12/13 12:15:19;;;;;;;21.45;10.20;;;2.50;92.60;;;;;;4871956;29;20037;-73
2022/12/13 12:17:45;;;;;;;20.58;9.73;;;2.70;92.10;;;;;;4871413;29;20045;-74
2022/12/13 12:20:20;;;;;;;22.73;10.10;;;2.80;91.90;;;;;;4871487;29;20101;-72
2022/12/13 12:22:56;;;;;;;18.25;9.10;;;3.00;91.70;;;;;;4871412;29;20040;-73
2022/12/13 12:25:41;;;;;;;18.48;9.23;;;3.20;91.90;;;;;;4871497;29;20033;-73
2022/12/13 12:28:28;;;;;;;18.67;9.73;;;3.50;91.50;;;;;;4871114;29;20048;-73
2022/12/13 12:31:35;;;;;;;19.37;9.37;;;3.80;91.10;;;;;;4850673;29;20033;-73
2022/12/13 12:34:37;;;;;;;18.15;9.43;;;3.90;90.90;;;;;;4870278;29;20042;-73
2022/12/13 12:37:23;;;;;;;17.73;9.27;;;4.30;89.90;;;;;;4868329;29;20045;-73
2022/12/13 12:40:18;;;;;;;19.42;9.45;;;4.20;89.20;;;;;;4870585;29;20045;-73
2022/12/13 12:42:57;;;;;;;22.60;10.43;;;3.90;90.20;;;;;;4870723;29;20035;-73
2022/12/13 12:45:37;;;;;;;19.80;10.02;;;3.80;90.70;;;;;;4871113;29;20041;-72
2022/12/13 12:48:11;;;;;;;22.63;10.15;;;3.60;90.60;;;;;;4871330;29;20046;-73
2022/12/13 12:51:11;;;;;;;19.75;9.63;;;3.30;91.00;;;;;;4871238;29;20061;-73
2022/12/13 12:53:48;;;;;;;22.73;10.35;;;3.20;91.30;;;;;;4870713;29;20044;-74
2022/12/13 12:56:32;;;;;;;19.90;10.50;;;3.00;91.10;;;;;;4871013;29;20025;-73
2022/12/13 12:59:05;;;;;;;23.60;10.30;;;2.60;91.60;;;;;;4870726;29;20037;-74
2022/12/13 13:01:56;;;;;;;23.92;12.35;;;2.70;92.00;;;;;;4870095;29;20044;-76
2022/12/13 13:04:41;;;;;;;21.33;9.90;;;2.70;92.40;;;;;;4852374;29;20041;-78
2022/12/13 13:07:35;;;;;;;17.17;9.38;;;2.80;91.70;;;;;;4852168;29;20042;-76
2022/12/13 13:10:02;;;;;;;19.90;9.68;;;2.80;91.70;;;;;;4858302;29;20036;-76
2022/12/13 13:12:29;;;;;;;19.83;9.90;;;2.70;91.70;;;;;;4869660;29;20243;-76
2022/12/13 13:14:55;;;;;;;21.50;11.00;;;2.60;92.10;;;;;;4870946;29;20029;-76
2022/12/13 13:17:24;;;;;;;22.65;10.18;;;2.60;92.40;;;;;;4870356;29;20215;-76
2022/12/13 13:20:10;;;;;;;23.88;10.70;;;2.70;92.30;;;;;;4853083;29;20060;-76
2022/12/13 13:22:37;;;;;;;23.58;10.40;;;2.70;92.50;;;;;;4851690;29;20037;-76
2022/12/13 13:25:03;;;;;;;27.30;10.45;;;2.70;92.50;;;;;;4851877;29;20097;-76
2022/12/13 13:27:30;;;;;;;20.83;10.88;;;2.80;92.60;;;;;;4853522;29;20311;-77
2022/12/13 13:30:06;;;;;;;23.33;11.75;;;2.90;92.40;;;;;;4870754;29;20056;-76
2022/12/13 13:32:38;;;;;;;29.27;11.73;;;2.80;92.60;;;;;;4856801;29;20033;-76
2022/12/13 13:35:29;;;;;;;21.08;10.32;;;2.60;92.90;;;;;;4850637;29;20029;-76
2022/12/13 13:37:57;;;;;;;21.40;10.18;;;2.40;93.30;;;;;;4844521;29;20082;-77
2022/12/13 13:40:28;;;;;;;22.50;10.82;;;2.30;93.40;;;;;;4870293;29;20041;-78
2022/12/13 13:43:15;;;;;;;20.20;9.38;;;2.30;93.10;;;;;;4854127;29;20040;-77
2022/12/13 13:46:09;;;;;;;16.85;7.28;;;2.20;92.10;;;;;;4869917;29;20097;-77
2022/12/13 13:48:53;;;;;;;16.73;7.90;;;2.10;91.90;;;;;;4870189;29;20071;-77
2022/12/13 13:51:44;;;;;;;16.00;7.38;;;2.00;92.00;;;;;;4870093;29;20079;-76
2022/12/13 13:54:12;;;;;;;14.77;7.65;;;1.80;91.60;;;;;;4870032;29;20319;-75
2022/12/13 13:57:09;;;;;;;17.27;8.25;;;1.60;92.40;;;;;;4868611;29;20057;-75
2022/12/13 14:00:13;;;;;;;14.88;7.85;;;1.70;92.60;;;;;;4869478;29;20231;-76
2022/12/13 14:02:45;;;;;;;18.38;7.95;;;1.60;92.70;;;;;;4855272;29;20041;-77
2022/12/13 14:05:45;;;;;;;20.88;8.65;;;1.60;92.40;;;;;;4853298;29;20106;-76
2022/12/13 14:08:48;;;;;;;14.85;8.50;;;1.60;92.90;;;;;;4853546;29;20299;-76
2022/12/13 14:11:55;;;;;;;19.35;8.77;;;1.70;93.00;;;;;;4869709;29;20039;-76
2022/12/13 14:14:42;;;;;;;18.57;8.10;;;1.70;92.40;;;;;;4869588;29;20103;-76
2022/12/13 14:17:43;;;;;;;17.15;8.40;;;1.60;92.50;;;;;;4869688;29;20320;-76
2022/12/13 14:20:37;;;;;;;20.52;8.15;;;1.50;92.40;;;;;;4869418;29;20045;-76
2022/12/13 14:23:42;;;;;;;26.00;9.93;;;1.50;92.50;;;;;;4852444;29;20060;-76
2022/12/13 14:26:20;;;;;;;14.77;8.43;;;1.40;92.70;;;;;;4850955;29;20046;-76
2022/12/13 14:28:51;;;;;;;18.77;7.82;;;1.20;92.70;;;;;;4834491;29;20041;-75
2022/12/13 14:31:23;;;;;;;16.90;7.93;;;1.20;92.90;;;;;;4852614;29;20041;-77
2022/12/13 14:33:52;;;;;;;16.75;8.05;;;1.10;93.00;;;;;;4868534;29;20048;-76
2022/12/13 14:36:27;;;;;;;14.70;7.55;;;1.10;92.70;;;;;;4852129;29;20025;-76
2022/12/13 14:39:04;;;;;;;18.55;7.63;;;1.10;92.50;;;;;;4867503;29;20037;-76
2022/12/13 14:41:31;;;;;;;17.20;7.50;;;1.00;92.70;;;;;;4867790;29;20121;-76
2022/12/13 14:44:34;;;;;;;19.55;8.07;;;1.00;92.70;;;;;;4867451;29;20454;-76
2022/12/13 14:47:10;;;;;;;20.75;8.18;;;0.90;92.90;;;;;;4812357;29;20092;-77
2022/12/13 14:49:41;;;;;;;15.10;7.20;;;0.90;92.70;;;;;;4862021;29;20057;-75
2022/12/13 14:52:19;;;;;;;15.63;6.68;;;0.80;92.90;;;;;;4869057;29;20411;-76
2022/12/13 14:54:58;;;;;;;14.73;6.75;;;0.80;93.40;;;;;;4867540;29;20288;-75
2022/12/13 14:57:30;;;;;;;14.43;7.22;;;0.70;93.70;;;;;;4868989;29;20146;-75
2022/12/13 14:59:58;;;;;;;15.68;7.43;;;0.80;94.00;;;;;;4869155;29;20048;-75
2022/12/13 15:02:31;;;;;;;15.48;7.15;;;0.70;93.80;;;;;;4851844;29;20042;-77
2022/12/13 15:04:59;;;;;;;16.50;6.88;;;0.70;93.80;;;;;;4868641;29;20081;-75
2022/12/13 15:07:43;;;;;;;16.02;7.78;;;0.60;93.10;;;;;;4869041;29;20058;-75
2022/12/13 15:10:17;;;;;;;15.15;7.15;;;0.60;93.10;;;;;;4850580;29;20038;-75
2022/12/13 15:12:44;;;;;;;14.85;7.30;;;0.50;93.50;;;;;;4849610;29;20112;-75
2022/12/13 15:15:25;;;;;;;13.98;7.53;;;0.40;93.80;;;;;;4850155;29;20042;-75
2022/12/13 15:18:06;;;;;;;15.30;7.18;;;0.30;93.30;;;;;;4849647;29;20045;-76
2022/12/13 15:20:41;;;;;;;13.50;6.85;;;0.30;94.20;;;;;;4848975;29;20067;-78
2022/12/13 15:23:25;;;;;;;;;;;0.30;93.50;;;;;;4850562;29;20026;-77
2022/12/13 15:25:57;;;;;;;;;;;0.20;93.50;;;;;;4834495;29;19912;-74
2022/12/13 15:28:57;;;;;;;13.43;6.45;;;0.20;93.80;;;;;;4837274;29;19935;-75
2022/12/13 15:31:34;;;;;;;16.90;6.93;;;0.10;93.80;;;;;;4852885;29;20029;-76
2022/12/13 15:34:22;;;;;;;17.73;7.55;;;0.00;94.20;;;;;;4868170;29;20069;-72
2022/12/13 15:36:48;;;;;;;16.35;7.32;;;0.00;94.30;;;;;;4867576;29;20064;-73
2022/12/13 15:39:14;;;;;;;17.40;7.30;;;0.00;94.80;;;;;;4868592;29;20100;-73
2022/12/13 15:41:45;;;;;;;21.75;10.90;;;0.00;94.20;;;;;;4867654;29;20370;-73
2022/12/13 15:44:45;;;;;;;16.88;8.13;;;-0.10;94.50;;;;;;4867959;29;20482;-73
2022/12/13 15:47:14;;;;;;;16.15;7.88;;;-0.10;94.50;;;;;;4857605;29;20049;-72
2022/12/13 15:49:48;;;;;;;17.70;7.07;;;-0.20;94.60;;;;;;4867765;29;20064;-72
2022/12/13 15:52:18;;;;;;;14.77;7.18;;;-0.20;94.60;;;;;;4868270;29;20153;-73
2022/12/13 15:55:07;;;;;;;18.50;8.40;;;-0.30;95.10;;;;;;4867839;29;20041;-73
2022/12/13 15:57:51;;;;;;;16.45;7.22;;;-0.30;94.70;;;;;;4867962;29;20037;-73
2022/12/13 16:00:17;;;;;;;17.08;8.02;;;-0.30;94.90;;;;;;4868222;29;20080;-72
2022/12/13 16:03:01;;;;;;;17.35;7.25;;;-0.40;94.80;;;;;;4850967;29;20211;-73
2022/12/13 16:05:36;;;;;;;17.15;7.53;;;-0.40;95.10;;;;;;4868579;29;20059;-73
2022/12/13 16:08:07;;;;;;;13.90;7.10;;;-0.40;95.30;;;;;;4868106;29;20068;-74
2022/12/13 16:10:34;;;;;;;15.80;7.45;;;-0.40;95.80;;;;;;4868114;29;20040;-73
2022/12/13 16:13:05;;;;;;;19.23;7.70;;;-0.40;95.60;;;;;;4868327;29;20041;-75
2022/12/13 16:15:51;;;;;;;15.80;7.78;;;-0.40;95.10;;;;;;4868490;29;20041;-73
2022/12/13 16:18:29;;;;;;;14.88;7.25;;;-0.40;94.80;;;;;;4830686;29;20045;-73
2022/12/13 16:20:56;;;;;;;16.90;7.73;;;-0.40;95.40;;;;;;4869533;29;20052;-72
2022/12/13 16:23:21;;;;;;;17.88;7.72;;;-0.50;94.90;;;;;;4871329;29;20047;-73
2022/12/13 16:25:47;;;;;;;21.10;8.18;;;-0.50;95.40;;;;;;4872462;29;20041;-72
2022/12/13 16:28:15;;;;;;;17.77;8.90;;;-0.60;95.20;;;;;;4873817;29;20049;-73
2022/12/13 16:30:57;;;;;;;16.35;7.80;;;-0.50;95.20;;;;;;4874434;29;20026;-74
2022/12/13 16:33:24;;;;;;;17.48;7.18;;;-0.60;95.40;;;;;;4833534;29;20050;-74
2022/12/13 16:35:50;;;;;;;19.23;8.35;;;-0.60;95.50;;;;;;4848925;29;20090;-71
2022/12/13 16:38:16;;;;;;;16.90;7.97;;;-0.70;95.50;;;;;;4849671;29;20074;-73
2022/12/13 16:40:44;;;;;;;15.00;7.82;;;-0.70;95.40;;;;;;4849077;29;20030;-72
2022/12/13 16:43:16;;;;;;;16.52;8.25;;;-0.70;95.50;;;;;;4849568;29;20034;-72
2022/12/13 16:45:49;;;;;;;19.75;9.52;;;-0.80;95.70;;;;;;4848887;29;20037;-72
2022/12/13 16:48:15;;;;;;;22.15;8.60;;;-0.80;95.70;;;;;;4835471;29;20060;-72
2022/12/13 16:50:43;;;;;;;17.10;8.18;;;-0.80;95.90;;;;;;4836103;29;20026;-73
2022/12/13 16:53:09;;;;;;;16.70;8.25;;;-0.80;96.00;;;;;;4853130;29;20030;-73
2022/12/13 16:55:35;;;;;;;16.00;7.75;;;-0.80;96.00;;;;;;4852384;29;20108;-72
2022/12/13 16:58:03;;;;;;;18.35;8.63;;;-0.80;96.00;;;;;;4870859;29;20034;-74
2022/12/13 17:00:29;;;;;;;;;;;-0.90;96.00;;;;;;4871355;29;20482;-73
2022/12/13 17:02:57;;;;;;;15.18;8.20;;;-0.90;96.10;;;;;;4870087;29;20291;-76
2022/12/13 17:05:24;;;;;;;18.90;9.18;;;-0.90;96.30;;;;;;4839125;29;20151;-75
2022/12/13 17:07:51;;;;;;;20.23;9.00;;;-1.00;96.70;;;;;;4870349;29;20378;-74
2022/12/13 17:10:17;;;;;;;21.52;9.38;;;-1.00;96.50;;;;;;4870759;29;20033;-73
2022/12/13 17:12:44;;;;;;;19.40;8.93;;;-1.00;96.60;;;;;;4870163;29;20037;-74
2022/12/13 17:15:11;;;;;;;20.13;8.77;;;-1.00;96.60;;;;;;4870717;29;20236;-76
2022/12/13 17:17:41;;;;;;;16.63;8.40;;;-1.00;96.60;;;;;;4870756;29;20037;-75
2022/12/13 17:20:13;;;;;;;19.70;8.95;;;-1.10;97.00;;;;;;4870720;29;20119;-74
2022/12/13 17:22:40;;;;;;;18.45;9.18;;;-1.10;97.10;;;;;;4870461;29;20052;-77
2022/12/13 17:25:09;;;;;;;20.95;9.40;;;-1.10;97.20;;;;;;4854361;29;20192;-76
2022/12/13 17:27:36;;;;;;;18.20;10.27;;;-1.10;97.20;;;;;;4870407;29;20033;-73
2022/12/13 17:30:08;;;;;;;21.75;9.63;;;-1.20;97.30;;;;;;4870536;29;20026;-76
2022/12/13 17:32:35;;;;;;;19.23;9.43;;;-1.20;97.30;;;;;;4870317;29;20061;-74
2022/12/13 17:35:01;;;;;;;19.60;9.45;;;-1.20;97.40;;;;;;4868852;29;20216;-75
2022/12/13 17:37:29;;;;;;;20.48;9.52;;;-1.20;97.40;;;;;;4870048;29;20025;-75
2022/12/13 17:39:55;;;;;;;15.65;6.65;;;-1.20;97.50;;;;;;4870226;29;20025;-74
2022/12/13 17:42:20;;;;;;;20.60;9.27;;;-1.20;97.90;;;;;;4870397;29;20031;-74
2022/12/13 17:44:46;;;;;;;20.52;9.13;;;-1.20;97.60;;;;;;4870013;29;20041;-75
2022/12/13 17:47:12;;;;;;;18.90;9.13;;;-1.20;97.60;;;;;;4870313;29;20038;-74
2022/12/13 17:49:38;;;;;;;18.67;8.88;;;-1.20;97.50;;;;;;4869992;29;20092;-78
2022/12/13 17:52:04;;;;;;;20.33;8.80;;;-1.20;97.40;;;;;;4853892;29;20146;-77
2022/12/13 17:54:30;;;;;;;20.77;9.50;;;-1.20;98.30;;;;;;4870178;29;20034;-76
2022/12/13 17:56:59;;;;;;;18.52;9.02;;;-1.20;97.60;;;;;;4869332;29;20030;-77
2022/12/13 17:59:26;;;;;;;18.15;8.82;;;-1.20;97.30;;;;;;4853626;29;20033;-76
2022/12/13 18:01:58;;;;;;;17.17;8.25;;;-1.20;96.70;;;;;;4852499;29;20049;-80
2022/12/13 18:04:24;;;;;;;19.10;8.85;;;-1.20;97.10;;;;;;4870118;29;20177;-77
2022/12/13 18:07:01;;;;;;;16.55;8.68;;;-1.20;97.30;;;;;;4869657;29;20044;-77
2022/12/13 18:09:35;;;;;;;19.05;8.35;;;-1.10;96.90;;;;;;4853522;29;20030;-76
2022/12/13 18:12:02;;;;;;;17.35;7.70;;;-1.10;96.60;;;;;;4852768;29;20033;-78
2022/12/13 18:14:30;;;;;;;18.77;8.38;;;-1.10;96.30;;;;;;4869888;29;20069;-76
2022/12/13 18:16:59;;;;;;;17.15;8.05;;;-1.10;96.20;;;;;;4869333;29;20045;-76
2022/12/13 18:19:29;;;;;;;18.10;8.02;;;-1.00;95.80;;;;;;4869956;29;20053;-76
2022/12/13 18:21:55;;;;;;;15.55;7.90;;;-1.00;95.70;;;;;;4869455;29;20145;-76
2022/12/13 18:24:21;;;;;;;16.08;8.15;;;-1.00;95.60;;;;;;4869690;29;20041;-77
2022/12/13 18:26:50;;;;;;;16.55;7.97;;;-1.00;96.10;;;;;;4852820;29;20081;-76
2022/12/13 18:29:17;;;;;;;16.10;8.20;;;-1.00;95.60;;;;;;4852984;29;20158;-76
2022/12/13 18:31:43;;;;;;;17.60;8.63;;;-1.00;95.60;;;;;;4852318;29;20036;-77
2022/12/13 18:34:08;;;;;;;14.38;7.70;;;-1.10;95.60;;;;;;4852922;29;20034;-77
2022/12/13 18:36:35;;;;;;;15.93;7.90;;;-1.10;95.50;;;;;;4868069;29;20036;-77
2022/12/13 18:39:04;;;;;;;19.00;8.88;;;-1.10;95.70;;;;;;4868911;29;20152;-75
2022/12/13 18:41:31;;;;;;;15.75;8.13;;;-1.00;95.60;;;;;;4868197;29;20060;-78
2022/12/13 18:44:00;;;;;;;18.02;7.93;;;-1.10;95.70;;;;;;4868992;29;20065;-75
2022/12/13 18:46:34;;;;;;;15.60;8.20;;;-1.10;95.90;;;;;;4869186;29;20165;-76
2022/12/13 18:49:00;;;;;;;16.63;8.25;;;-1.10;95.90;;;;;;4867566;29;20071;-78
2022/12/13 18:51:29;;;;;;;16.73;8.20;;;-1.10;95.80;;;;;;4868216;29;20081;-78
2022/12/13 18:53:56;;;;;;;16.45;8.48;;;-1.10;95.70;;;;;;4837278;29;20099;-77
2022/12/13 18:56:22;;;;;;;17.67;8.45;;;-1.10;95.90;;;;;;4865715;29;20029;-76
2022/12/13 18:58:54;;;;;;;17.58;8.52;;;-1.10;95.90;;;;;;4868669;29;20089;-78
2022/12/13 19:01:21;;;;;;;17.17;8.68;;;-1.10;96.10;;;;;;4868799;29;20118;-77
2022/12/13 19:03:48;;;;;;;18.42;9.07;;;-1.20;96.00;;;;;;4868281;29;20045;-78
2022/12/13 19:06:19;;;;;;;16.73;9.05;;;-1.20;96.20;;;;;;4851923;29;20145;-77
2022/12/13 19:08:50;;;;;;;17.40;8.57;;;-1.20;96.10;;;;;;4858969;29;20025;-77